Aérodrome :
LOGIN :

S'inscrire | Disclaimer

   EN    FR    IT 

 










Légende :    VFR   VFR Marginal   IFR   IFR Intensif   IFR Très Intensif
Visi : 
Plafond : 
>= 8 km
>= 3000ft
5 à 8 km
1000 à 3000 ft
1500m à 5 km
500 à 1000 ft
800 à 1500m
200 à 500 ft
< 800m
< 200 ft
Symboles :   Orages  Brouillard  Fortes neiges  Fortes précipitations  Vent > 20 kt
SIGMETs :   Divers  Orages  Givrage  Turbulence  Onde Orograph.  Cendres Volcan.






- Altitude de l'aérodrome : 995 ft
- Code IATA : KTW


EPKT - Katowice

DERNIER METAR :
  • 241730Z 16006KT 7000 NSC 01/M01 Q1014

METARs EXPIRÉS :
  • 241700Z 15003KT 9999 FEW039 01/M01 Q1015
  • 241630Z 23004KT 190V250 9999 FEW047 03/M01 Q1015
  • 241600Z 26006KT 9999 BKN044 03/M01 Q1016
  • 241530Z 27006KT 9999 SCT039 BKN043 04/M01 Q1016
  • 241500Z 27010KT 9999 BKN031 OVC037 05/M01 Q1016

TAF TAF EPKT
Valide du 24 à 18h jusqu'au 25 à 18h UTC


241730Z 2418/2518 16006KT 9999 SCT040
BECMG 2422/2501 22017G28KT BKN014
TEMPO 2423/2515 4000 RA BR BKN007
BECMG 2507/2510 23012KT
BECMG 2514/2517 BKN020



MET'MAP, la Météo Aéronautique d'un coup d'oeil ! - Copyright ORBIFLY Décembre 2007 - Disclaimer

ORBIFLY MET'MAP TEAM :

Programmation & Développement : Alexandra Zaïnal
Sur une idée originale de : Baudouin d'Aumeries
Assistance à la programmation : Marc-Olivier Méhu
Soutien technique & logistique : Manuel Goepfert

Contact : metmap@orbifly.com




SOURCES & CREDITS :

   NOAA